createdAt,value
2023-06-19T00:00:47.388Z,91.10
2023-06-19T00:03:35.663Z,91.07
2023-06-19T00:06:04.050Z,90.55
2023-06-19T00:08:32.213Z,90.78
2023-06-19T00:11:00.470Z,90.12
2023-06-19T00:13:28.756Z,90.18
2023-06-19T00:16:01.684Z,89.90
2023-06-19T00:18:30.202Z,90.35
2023-06-19T00:20:58.573Z,90.67
2023-06-19T00:23:26.905Z,90.99
2023-06-19T00:25:55.331Z,90.62
2023-06-19T00:28:23.474Z,90.58
2023-06-19T00:30:52.835Z,91.51
2023-06-19T00:33:23.136Z,91.41
2023-06-19T00:35:52.137Z,90.55
2023-06-19T00:38:20.420Z,90.26
2023-06-19T00:40:49.181Z,90.05
2023-06-19T00:43:18.646Z,90.17
2023-06-19T00:45:46.991Z,89.59
2023-06-19T00:48:17.003Z,89.93
2023-06-19T00:50:45.326Z,89.38
2023-06-19T00:53:14.452Z,89.01
2023-06-19T00:55:44.614Z,89.52
2023-06-19T00:58:13.214Z,89.27
2023-06-19T01:00:44.010Z,89.06
2023-06-19T01:03:16.855Z,88.77
2023-06-19T01:05:49.798Z,88.64
2023-06-19T01:08:35.194Z,88.13
2023-06-19T01:11:14.841Z,87.67
2023-06-19T01:14:07.556Z,87.83
2023-06-19T01:16:38.648Z,87.61
2023-06-19T01:19:12.061Z,87.57
2023-06-19T01:21:43.239Z,87.80
2023-06-19T01:24:13.581Z,88.24
2023-06-19T01:26:42.258Z,88.49
2023-06-19T01:29:10.667Z,88.65
2023-06-19T01:31:48.010Z,88.62
2023-06-19T01:34:18.666Z,88.11
2023-06-19T01:36:50.349Z,88.72
2023-06-19T01:39:21.456Z,89.15
2023-06-19T01:41:50.038Z,89.28
2023-06-19T01:44:19.810Z,89.42
2023-06-19T01:46:52.064Z,90.20
2023-06-19T01:49:21.038Z,91.94
2023-06-19T01:51:49.291Z,91.46
2023-06-19T01:54:17.588Z,92.01
2023-06-19T01:56:46.035Z,91.91
2023-06-19T01:59:16.053Z,92.18
2023-06-19T02:01:44.556Z,91.87
2023-06-19T02:04:12.929Z,92.26
2023-06-19T02:06:41.282Z,93.34
2023-06-19T02:09:09.707Z,93.34
2023-06-19T02:11:40.406Z,93.36
2023-06-19T02:14:12.174Z,92.87
2023-06-19T02:16:44.886Z,92.14
2023-06-19T02:19:13.238Z,91.34
2023-06-19T02:21:41.499Z,91.00
2023-06-19T02:24:09.904Z,90.99
2023-06-19T02:26:38.293Z,90.38
2023-06-19T02:29:06.664Z,91.01
2023-06-19T02:31:36.083Z,90.84
2023-06-19T02:34:04.371Z,90.81
2023-06-19T02:36:33.086Z,90.35
2023-06-19T02:39:01.431Z,90.06
2023-06-19T02:41:29.755Z,89.95
2023-06-19T02:43:58.059Z,89.84
2023-06-19T02:46:26.567Z,91.51
2023-06-19T02:48:54.873Z,92.35
2023-06-19T02:51:24.166Z,91.61
2023-06-19T02:53:52.414Z,90.33
2023-06-19T02:56:20.694Z,89.50
2023-06-19T02:58:48.942Z,89.31
2023-06-19T03:01:17.345Z,87.74
2023-06-19T03:03:47.823Z,86.21
2023-06-19T03:06:16.120Z,85.60
2023-06-19T03:08:44.487Z,83.99
2023-06-19T03:11:12.990Z,84.28
2023-06-19T03:13:55.603Z,84.32
2023-06-19T03:16:24.006Z,84.11
2023-06-19T03:18:53.351Z,84.16
2023-06-19T03:21:23.289Z,83.76
2023-06-19T03:23:52.106Z,83.90
2023-06-19T03:26:23.243Z,84.29
2023-06-19T03:28:51.680Z,84.42
2023-06-19T03:31:20.424Z,84.81
2023-06-19T03:33:48.781Z,85.09
2023-06-19T03:36:17.786Z,85.23
2023-06-19T03:38:50.817Z,86.00
2023-06-19T03:41:21.976Z,85.86
2023-06-19T03:43:50.368Z,85.72
2023-06-19T03:46:18.962Z,85.85
2023-06-19T03:48:48.233Z,84.78
2023-06-19T03:51:16.612Z,84.71
2023-06-19T03:53:45.073Z,84.63
2023-06-19T03:56:20.798Z,83.94
2023-06-19T03:58:49.070Z,83.75
2023-06-19T04:01:17.417Z,83.59
2023-06-19T04:03:45.739Z,84.12
2023-06-19T04:06:14.103Z,84.59
2023-06-19T04:08:42.591Z,84.73
2023-06-19T04:11:14.074Z,85.50
2023-06-19T04:13:42.591Z,84.96
2023-06-19T04:16:11.011Z,84.67
2023-06-19T04:18:39.295Z,84.04
2023-06-19T04:21:08.494Z,83.45
2023-06-19T04:23:36.966Z,82.99
2023-06-19T04:26:05.546Z,82.87
2023-06-19T04:28:34.563Z,82.77
2023-06-19T04:31:02.914Z,83.01
2023-06-19T04:33:31.338Z,83.17
2023-06-19T04:35:59.870Z,82.21
2023-06-19T04:38:28.197Z,81.50
2023-06-19T04:40:58.717Z,80.78
2023-06-19T04:43:26.936Z,80.86
2023-06-19T04:45:58.158Z,81.69
2023-06-19T04:48:27.283Z,81.28
2023-06-19T04:50:57.372Z,81.09
2023-06-19T04:53:26.426Z,80.44
2023-06-19T04:55:56.312Z,80.94
2023-06-19T04:58:24.598Z,80.74
2023-06-19T05:00:53.664Z,80.98
2023-06-19T05:03:23.208Z,82.04
2023-06-19T05:05:51.833Z,82.79
2023-06-19T05:08:20.295Z,83.32
2023-06-19T05:10:48.538Z,83.24
2023-06-19T05:13:16.822Z,83.50
2023-06-19T05:15:45.089Z,83.13
2023-06-19T05:18:13.604Z,82.53
2023-06-19T05:20:41.838Z,82.43
2023-06-19T05:23:19.120Z,83.48
2023-06-19T05:25:47.429Z,84.48
2023-06-19T05:28:15.612Z,83.83
2023-06-19T05:30:43.930Z,83.32
2023-06-19T05:33:17.033Z,82.66
2023-06-19T05:35:52.468Z,82.15
2023-06-19T05:38:21.869Z,81.53
2023-06-19T05:40:51.590Z,81.52
2023-06-19T05:43:23.270Z,80.95
2023-06-19T05:45:52.019Z,80.45
2023-06-19T05:48:20.301Z,80.81
2023-06-19T05:50:48.569Z,79.81
2023-06-19T05:53:16.878Z,80.07
2023-06-19T05:55:45.096Z,80.61
2023-06-19T05:58:13.385Z,80.96
2023-06-19T06:00:41.783Z,81.44
2023-06-19T06:03:10.046Z,80.57
2023-06-19T06:05:38.590Z,80.58
2023-06-19T06:08:08.057Z,80.59
2023-06-19T06:10:39.043Z,81.07
2023-06-19T06:13:07.218Z,80.02
2023-06-19T06:15:35.744Z,79.51
2023-06-19T06:18:04.877Z,78.61
2023-06-19T06:20:33.563Z,78.98
2023-06-19T06:23:01.812Z,78.82
2023-06-19T06:25:30.093Z,78.53
2023-06-19T06:27:58.383Z,78.23
2023-06-19T06:30:28.836Z,78.36
2023-06-19T06:32:57.197Z,77.31
2023-06-19T06:35:25.428Z,76.35
2023-06-19T06:37:53.670Z,75.16
2023-06-19T06:40:22.168Z,74.10
2023-06-19T06:42:50.738Z,72.02
2023-06-19T06:45:19.046Z,70.47
2023-06-19T06:47:47.285Z,71.49
2023-06-19T06:50:15.544Z,70.12
2023-06-19T06:52:43.838Z,69.51
2023-06-19T06:55:12.168Z,69.51
2023-06-19T06:57:40.494Z,67.03
2023-06-19T07:00:11.272Z,67.91
2023-06-19T07:02:41.484Z,66.19
2023-06-19T07:05:11.032Z,66.60
2023-06-19T07:07:41.679Z,66.30
2023-06-19T07:10:10.742Z,65.98
2023-06-19T07:12:49.750Z,65.27
2023-06-19T07:15:18.226Z,64.48
2023-06-19T07:17:46.974Z,63.70
2023-06-19T07:20:16.018Z,63.59
2023-06-19T07:22:45.419Z,62.40
2023-06-19T07:25:14.418Z,63.08
2023-06-19T07:27:42.687Z,63.23
2023-06-19T07:30:14.050Z,64.84
2023-06-19T07:32:44.078Z,63.64
2023-06-19T07:35:13.031Z,63.10
2023-06-19T07:37:41.683Z,63.54
2023-06-19T07:40:11.174Z,63.06
2023-06-19T07:42:40.014Z,63.72
2023-06-19T07:45:09.798Z,65.88
2023-06-19T07:47:38.280Z,64.57
2023-06-19T07:50:07.017Z,64.69
2023-06-19T07:52:35.401Z,64.82
2023-06-19T07:55:03.988Z,65.67
2023-06-19T07:57:32.375Z,66.51
2023-06-19T08:00:00.656Z,64.76
2023-06-19T08:02:29.062Z,63.56
2023-06-19T08:04:57.521Z,64.50
2023-06-19T08:07:26.181Z,65.49
2023-06-19T08:10:04.209Z,64.60
2023-06-19T08:12:43.962Z,65.11
2023-06-19T08:15:14.875Z,65.45
2023-06-19T08:17:43.844Z,64.62
2023-06-19T08:20:12.503Z,64.55
2023-06-19T08:22:40.866Z,66.66
2023-06-19T08:25:09.393Z,67.93
2023-06-19T08:27:37.763Z,67.79
2023-06-19T08:30:06.658Z,67.95
2023-06-19T08:32:36.127Z,67.03
2023-06-19T08:35:04.797Z,67.47
2023-06-19T08:37:33.074Z,68.10
2023-06-19T08:40:01.565Z,68.76
2023-06-19T08:42:29.822Z,68.70
2023-06-19T08:44:58.162Z,69.04
2023-06-19T08:47:32.630Z,69.37
2023-06-19T08:50:02.527Z,68.70
2023-06-19T08:52:31.299Z,69.75
2023-06-19T08:54:59.518Z,70.18
2023-06-19T08:57:39.395Z,70.82
2023-06-19T09:00:09.235Z,70.21
2023-06-19T09:02:54.857Z,72.36
2023-06-19T09:05:33.085Z,72.17
2023-06-19T09:08:02.151Z,70.99
2023-06-19T09:10:33.082Z,71.22
2023-06-19T09:13:03.369Z,72.40
2023-06-19T09:15:35.832Z,72.41
2023-06-19T09:18:09.166Z,72.22
2023-06-19T09:20:45.956Z,71.68
2023-06-19T09:23:14.972Z,71.59
2023-06-19T09:25:58.627Z,70.98
2023-06-19T09:28:29.193Z,70.85
2023-06-19T09:30:58.919Z,71.01
2023-06-19T09:33:29.917Z,71.19
2023-06-19T09:35:59.918Z,71.87
2023-06-19T09:38:30.544Z,73.99
2023-06-19T09:41:02.706Z,73.03
2023-06-19T09:43:48.527Z,73.84
2023-06-19T09:46:20.373Z,76.86
2023-06-19T09:48:52.296Z,77.52
2023-06-19T09:51:24.765Z,77.06
2023-06-19T09:53:55.462Z,78.17
2023-06-19T09:56:25.632Z,78.15
2023-06-19T09:58:57.522Z,78.47
2023-06-19T10:01:27.443Z,78.85
2023-06-19T10:04:07.169Z,79.72
2023-06-19T10:06:47.969Z,80.53
2023-06-19T10:09:23.873Z,80.50
2023-06-19T10:11:53.423Z,80.18
2023-06-19T10:14:23.249Z,79.06
2023-06-19T10:16:51.694Z,78.67
2023-06-19T10:19:22.913Z,79.10
2023-06-19T10:21:54.476Z,78.74
2023-06-19T10:24:25.541Z,78.86
2023-06-19T10:27:00.025Z,78.50
2023-06-19T10:29:42.404Z,78.01
2023-06-19T10:32:14.489Z,77.82
2023-06-19T10:34:48.483Z,77.45
2023-06-19T10:37:17.516Z,77.47
2023-06-19T10:39:45.849Z,77.69
2023-06-19T10:42:14.110Z,77.68
2023-06-19T10:44:43.440Z,76.94
2023-06-19T10:47:11.770Z,77.31
2023-06-19T10:49:40.166Z,77.26
2023-06-19T10:52:08.784Z,79.88
2023-06-19T10:54:37.060Z,79.50
2023-06-19T10:57:06.216Z,80.35
2023-06-19T10:59:35.202Z,80.58
2023-06-19T11:02:03.847Z,81.18
2023-06-19T11:04:32.328Z,82.50
2023-06-19T11:07:06.725Z,82.27
2023-06-19T11:09:35.344Z,81.02
2023-06-19T11:12:03.828Z,81.35
2023-06-19T11:14:32.092Z,80.99
2023-06-19T11:17:00.424Z,80.43
2023-06-19T11:19:31.924Z,80.14
2023-06-19T11:22:04.426Z,79.54
2023-06-19T11:24:32.913Z,79.12
2023-06-19T11:27:01.302Z,76.92
2023-06-19T11:29:35.487Z,77.62
2023-06-19T11:32:18.816Z,77.57
2023-06-19T11:34:49.974Z,78.04
2023-06-19T11:37:19.740Z,76.90
2023-06-19T11:39:50.902Z,75.45
2023-06-19T11:42:19.890Z,74.75
2023-06-19T11:45:06.575Z,74.69
2023-06-19T11:47:35.966Z,72.16
2023-06-19T11:50:08.230Z,73.30
2023-06-19T11:52:36.580Z,72.80
2023-06-19T11:55:05.238Z,72.05
2023-06-19T11:57:34.479Z,70.68
2023-06-19T12:00:05.169Z,69.71
2023-06-19T12:02:41.449Z,70.23
2023-06-19T12:05:10.467Z,69.25
2023-06-19T12:07:38.948Z,68.35
2023-06-19T12:10:11.434Z,66.96
2023-06-19T12:12:40.056Z,65.74
2023-06-19T12:15:08.614Z,64.81
2023-06-19T12:17:37.039Z,65.93
2023-06-19T12:20:09.109Z,65.96
2023-06-19T12:22:37.342Z,65.00
2023-06-19T12:25:05.681Z,63.29
2023-06-19T12:27:34.762Z,62.35
2023-06-19T12:30:03.752Z,61.52
2023-06-19T12:32:32.143Z,61.97
2023-06-19T12:35:00.474Z,60.78
2023-06-19T12:37:29.313Z,58.94
2023-06-19T12:39:57.577Z,58.24
2023-06-19T12:42:25.866Z,59.05
2023-06-19T12:44:54.215Z,58.76
2023-06-19T12:47:22.463Z,58.16
2023-06-19T12:49:50.798Z,58.41
2023-06-19T12:52:18.942Z,58.62
2023-06-19T12:54:47.184Z,58.63
2023-06-19T12:57:15.496Z,58.77
2023-06-19T12:59:43.700Z,58.53
2023-06-19T13:02:14.324Z,56.77
2023-06-19T13:04:43.942Z,57.22
2023-06-19T13:07:13.471Z,57.15
2023-06-19T13:09:41.669Z,57.47
2023-06-19T13:12:10.536Z,56.72
2023-06-19T13:14:39.129Z,57.30
2023-06-19T13:17:08.170Z,57.86
2023-06-19T13:19:36.813Z,58.08
2023-06-19T13:22:05.022Z,57.34
2023-06-19T13:24:33.243Z,57.48
2023-06-19T13:27:01.508Z,57.04
2023-06-19T13:29:29.845Z,57.47
2023-06-19T13:31:58.187Z,59.24
2023-06-19T13:34:26.487Z,58.00
2023-06-19T13:36:58.780Z,57.83
2023-06-19T13:39:26.984Z,56.81
2023-06-19T13:41:55.284Z,55.31
2023-06-19T13:44:23.588Z,55.19
2023-06-19T13:46:51.842Z,55.21
2023-06-19T13:49:20.268Z,56.31
2023-06-19T13:51:48.932Z,57.25
2023-06-19T13:54:38.453Z,56.85
2023-06-19T13:57:07.147Z,57.65
2023-06-19T13:59:35.457Z,58.92
2023-06-19T14:02:04.069Z,61.64
2023-06-19T14:04:32.920Z,60.91
2023-06-19T14:07:01.678Z,60.11
2023-06-19T14:09:30.191Z,60.79
2023-06-19T14:11:58.431Z,60.55
2023-06-19T14:14:26.698Z,60.28
2023-06-19T14:16:54.985Z,61.12
2023-06-19T14:19:24.463Z,61.14
2023-06-19T14:21:52.747Z,60.84
2023-06-19T14:24:21.091Z,61.51
2023-06-19T14:26:49.335Z,62.23
2023-06-19T14:29:19.871Z,62.60
2023-06-19T14:31:48.184Z,62.87
2023-06-19T14:34:16.548Z,62.50
2023-06-19T14:36:44.860Z,63.10
2023-06-19T14:39:13.354Z,64.10
2023-06-19T14:41:41.676Z,64.67
2023-06-19T14:44:09.998Z,64.56
2023-06-19T14:46:40.550Z,64.98
2023-06-19T14:49:12.212Z,65.20
2023-06-19T14:51:40.579Z,64.72
2023-06-19T14:54:08.948Z,64.68
2023-06-19T14:56:37.125Z,65.03
2023-06-19T14:59:05.420Z,65.52
2023-06-19T15:01:33.733Z,65.87
2023-06-19T15:04:02.260Z,66.60
2023-06-19T15:06:30.514Z,66.55
2023-06-19T15:08:59.086Z,66.89
2023-06-19T15:11:29.527Z,66.68
2023-06-19T15:13:57.881Z,67.99
2023-06-19T15:16:26.718Z,67.60
2023-06-19T15:18:55.633Z,68.01
2023-06-19T15:21:24.023Z,67.86
2023-06-19T15:23:57.089Z,69.24
2023-06-19T15:26:26.037Z,69.57
2023-06-19T15:28:57.023Z,69.51
2023-06-19T15:31:27.781Z,69.95
2023-06-19T15:33:56.037Z,69.80
2023-06-19T15:36:35.427Z,70.00
2023-06-19T15:39:03.897Z,70.85
2023-06-19T15:41:32.487Z,71.14
2023-06-19T15:44:00.746Z,70.87
2023-06-19T15:46:29.142Z,72.03
2023-06-19T15:48:59.232Z,71.90
2023-06-19T15:51:27.487Z,72.44
2023-06-19T15:53:55.885Z,71.92
2023-06-19T15:56:24.166Z,72.13
2023-06-19T15:58:52.373Z,71.72
2023-06-19T16:01:20.654Z,71.53
2023-06-19T16:03:49.327Z,71.78
2023-06-19T16:06:17.961Z,71.54
2023-06-19T16:08:46.244Z,71.66
2023-06-19T16:11:14.612Z,71.81
2023-06-19T16:13:43.099Z,72.12
2023-06-19T16:16:11.493Z,72.54
2023-06-19T16:18:39.874Z,72.40
2023-06-19T16:21:08.199Z,72.42
2023-06-19T16:23:37.301Z,72.51
2023-06-19T16:26:06.068Z,72.37
2023-06-19T16:28:34.292Z,72.49
2023-06-19T16:31:03.686Z,72.70
2023-06-19T16:33:32.081Z,73.49
2023-06-19T16:36:00.329Z,72.93
2023-06-19T16:38:29.083Z,72.73
2023-06-19T16:40:57.410Z,72.40
2023-06-19T16:43:25.797Z,72.23
2023-06-19T16:45:54.200Z,72.31
2023-06-19T16:48:22.706Z,72.66
2023-06-19T16:50:51.088Z,72.82
2023-06-19T16:53:19.444Z,72.16
2023-06-19T16:55:47.724Z,72.00
2023-06-19T16:58:16.060Z,71.51
2023-06-19T17:00:54.195Z,71.53
2023-06-19T17:03:22.921Z,71.53
2023-06-19T17:05:51.271Z,71.26
2023-06-19T17:08:19.528Z,71.14
2023-06-19T17:10:47.751Z,71.01
2023-06-19T17:13:16.296Z,70.98
2023-06-19T17:15:44.656Z,71.02
2023-06-19T17:18:13.115Z,71.25
2023-06-19T17:20:43.109Z,70.47
2023-06-19T17:23:11.346Z,71.17
2023-06-19T17:25:40.896Z,71.06
2023-06-19T17:28:09.347Z,70.91
2023-06-19T17:30:38.930Z,71.60
2023-06-19T17:33:07.853Z,71.88
2023-06-19T17:35:36.227Z,71.99
2023-06-19T17:38:04.574Z,71.93
2023-06-19T17:40:32.857Z,71.60
2023-06-19T17:43:01.036Z,71.68
2023-06-19T17:45:29.224Z,72.02
2023-06-19T17:47:57.531Z,72.10
2023-06-19T17:50:26.290Z,72.40
2023-06-19T17:52:54.865Z,72.13
2023-06-19T17:55:23.075Z,72.32
2023-06-19T17:57:51.357Z,72.18
2023-06-19T18:00:20.003Z,73.28
2023-06-19T18:02:48.342Z,74.11
2023-06-19T18:05:16.721Z,73.86
2023-06-19T18:07:44.930Z,74.35
2023-06-19T18:10:14.663Z,73.70
2023-06-19T18:12:43.502Z,73.44
2023-06-19T18:15:11.937Z,73.59
2023-06-19T18:17:40.493Z,73.42
2023-06-19T18:20:09.598Z,73.28
2023-06-19T18:22:47.094Z,73.38
2023-06-19T18:25:15.470Z,73.20
2023-06-19T18:27:43.851Z,73.11
2023-06-19T18:30:12.632Z,72.88
2023-06-19T18:32:41.095Z,72.68
2023-06-19T18:35:09.847Z,72.75
2023-06-19T18:37:38.239Z,72.68
2023-06-19T18:40:07.258Z,72.60
2023-06-19T18:42:35.608Z,72.82
2023-06-19T18:45:04.320Z,73.70
2023-06-19T18:47:32.617Z,73.66
2023-06-19T18:50:00.860Z,73.71
2023-06-19T18:52:29.399Z,74.22
2023-06-19T18:54:57.845Z,74.28
2023-06-19T18:57:29.201Z,74.63
2023-06-19T18:59:58.429Z,75.55
2023-06-19T19:02:27.179Z,75.36
2023-06-19T19:04:55.943Z,75.88
2023-06-19T19:07:24.233Z,76.10
2023-06-19T19:09:52.463Z,76.40
2023-06-19T19:12:20.760Z,76.73
2023-06-19T19:14:49.047Z,76.56
2023-06-19T19:17:17.298Z,76.56
2023-06-19T19:19:45.665Z,76.86
2023-06-19T19:22:13.952Z,76.78
2023-06-19T19:24:42.324Z,76.43
2023-06-19T19:27:10.682Z,76.13
2023-06-19T19:29:39.008Z,76.37
2023-06-19T19:32:07.733Z,76.43
2023-06-19T19:34:36.012Z,76.71
2023-06-19T19:37:06.866Z,76.18
2023-06-19T19:39:36.022Z,76.58
2023-06-19T19:42:04.690Z,77.07
2023-06-19T19:44:32.990Z,76.99
2023-06-19T19:47:01.271Z,76.86
2023-06-19T19:49:29.529Z,77.19
2023-06-19T19:51:57.786Z,78.14
2023-06-19T19:54:26.024Z,77.79
2023-06-19T19:56:54.472Z,78.12
2023-06-19T19:59:22.779Z,78.76
2023-06-19T20:01:51.051Z,78.42
2023-06-19T20:04:19.325Z,79.78
2023-06-19T20:06:47.698Z,80.51
2023-06-19T20:09:15.918Z,80.37
2023-06-19T20:11:44.133Z,81.28
2023-06-19T20:14:12.329Z,81.76
2023-06-19T20:16:40.705Z,81.68
2023-06-19T20:19:09.088Z,82.17
2023-06-19T20:21:37.608Z,82.92
2023-06-19T20:24:06.283Z,83.76
2023-06-19T20:26:35.210Z,83.96
2023-06-19T20:29:03.810Z,85.34
2023-06-19T20:31:32.113Z,85.91
2023-06-19T20:34:04.291Z,85.49
2023-06-19T20:36:32.534Z,85.59
2023-06-19T20:39:00.784Z,86.07
2023-06-19T20:41:29.073Z,86.33
2023-06-19T20:43:57.339Z,86.17
2023-06-19T20:46:25.623Z,88.76
2023-06-19T20:48:53.891Z,88.68
2023-06-19T20:51:22.280Z,88.22
2023-06-19T20:53:50.634Z,87.39
2023-06-19T20:56:18.967Z,86.57
2023-06-19T20:58:47.253Z,86.47
2023-06-19T21:01:15.576Z,86.19
2023-06-19T21:03:43.863Z,87.69
2023-06-19T21:06:12.228Z,88.44
2023-06-19T21:08:41.413Z,88.24
2023-06-19T21:11:09.672Z,87.55
2023-06-19T21:13:38.062Z,87.57
2023-06-19T21:16:06.514Z,88.77
2023-06-19T21:18:34.708Z,89.43
2023-06-19T21:21:03.024Z,89.57
2023-06-19T21:23:31.342Z,90.16
2023-06-19T21:25:59.703Z,90.39
2023-06-19T21:28:29.308Z,91.10
2023-06-19T21:30:57.501Z,91.26
2023-06-19T21:33:27.135Z,92.36
2023-06-19T21:35:55.404Z,92.52
2023-06-19T21:38:25.635Z,93.78
2023-06-19T21:40:53.942Z,93.68
2023-06-19T21:43:28.047Z,93.96
2023-06-19T21:46:00.058Z,93.99
2023-06-19T21:48:29.645Z,92.10
2023-06-19T21:50:57.988Z,91.49
2023-06-19T21:53:26.994Z,91.10
2023-06-19T21:55:57.340Z,91.39
2023-06-19T21:58:26.102Z,90.91
2023-06-19T22:00:54.284Z,91.09
2023-06-19T22:03:22.696Z,91.09
2023-06-19T22:05:51.041Z,90.86
2023-06-19T22:08:27.163Z,90.99
2023-06-19T22:11:06.146Z,91.94
2023-06-19T22:13:34.960Z,91.44
2023-06-19T22:16:03.390Z,91.68
2023-06-19T22:18:31.852Z,92.09
2023-06-19T22:21:00.620Z,91.92
2023-06-19T22:23:28.913Z,92.89
2023-06-19T22:25:57.185Z,93.47
2023-06-19T22:28:25.510Z,93.51
2023-06-19T22:30:54.057Z,93.92
2023-06-19T22:33:22.347Z,94.93
2023-06-19T22:35:50.849Z,94.34
2023-06-19T22:38:19.078Z,94.67
2023-06-19T22:40:47.883Z,94.89
2023-06-19T22:43:16.259Z,94.93
2023-06-19T22:45:44.532Z,93.95
2023-06-19T22:48:12.829Z,94.18
2023-06-19T22:50:41.226Z,94.37
2023-06-19T22:53:09.500Z,95.27
2023-06-19T22:55:37.786Z,96.00
2023-06-19T22:58:06.006Z,95.73
2023-06-19T23:00:57.622Z,96.03
2023-06-19T23:03:26.138Z,98.19
2023-06-19T23:05:54.832Z,98.18
2023-06-19T23:08:23.342Z,98.08
2023-06-19T23:10:51.508Z,97.31
2023-06-19T23:13:19.744Z,97.06
2023-06-19T23:15:48.146Z,97.59
2023-06-19T23:18:16.407Z,97.99
2023-06-19T23:20:44.710Z,98.44
2023-06-19T23:23:13.010Z,98.78
2023-06-19T23:25:41.509Z,98.03
2023-06-19T23:28:09.889Z,97.45
2023-06-19T23:30:38.923Z,98.58
2023-06-19T23:33:07.287Z,99.53
2023-06-19T23:35:35.632Z,99.73
2023-06-19T23:38:04.011Z,99.80
2023-06-19T23:40:32.732Z,99.72
2023-06-19T23:43:01.116Z,99.84
2023-06-19T23:45:29.507Z,100.00
2023-06-19T23:47:57.811Z,100.00
2023-06-19T23:50:26.134Z,99.98
2023-06-19T23:52:54.464Z,100.00
2023-06-19T23:55:22.923Z,100.00
2023-06-19T23:57:51.704Z,99.64
